Time;durP1;ratioP1;P1;durP2;ratioP2;P2;SDS_P1;SDS_P2;PMS_P1;PMS_P2;Temp;Humidity;BMP_temperature;BMP_pressure;BME280_temperature;BME280_humidity;BME280_pressure;Samples;Min_cycle;Max_cycle;Signal;HPM_P1;HPM_P2
2021/12/27 00:00:50;;;;;;;39.34;16.78;;;;;;;;;;356564;148;866393;-54
2021/12/27 00:01:52;;;;;;;41.59;17.89;;;;;;;;;;353207;149;865752;-54
2021/12/27 00:02:54;;;;;;;44.87;17.47;;;;;;;;;;355330;149;863933;-54
2021/12/27 00:03:56;;;;;;;42.16;17.71;;;;;;;;;;358236;149;858040;-54
2021/12/27 00:04:58;;;;;;;45.04;17.67;;;;;;;;;;358968;148;858965;-54
2021/12/27 00:05:59;;;;;;;41.98;18.05;;;;;;;;;;359352;149;858364;-55
2021/12/27 00:07:01;;;;;;;45.80;18.21;;;;;;;;;;358564;148;865654;-55
2021/12/27 00:08:02;;;;;;;39.86;16.50;;;;;;;;;;358403;148;865760;-54
2021/12/27 00:09:04;;;;;;;38.44;17.26;;;;;;;;;;354564;149;864981;-54
2021/12/27 00:10:06;;;;;;;39.46;16.31;;;;;;;;;;356470;149;865734;-54
2021/12/27 00:11:08;;;;;;;42.67;17.93;;;;;;;;;;358380;148;858730;-55
2021/12/27 00:12:09;;;;;;;40.55;17.62;;;;;;;;;;356162;148;859028;-54
2021/12/27 00:13:11;;;;;;;42.25;18.39;;;;;;;;;;358813;149;864841;-54
2021/12/27 00:14:13;;;;;;;42.99;17.66;;;;;;;;;;358534;149;864932;-54
2021/12/27 00:15:14;;;;;;;45.63;18.82;;;;;;;;;;358088;148;864818;-54
2021/12/27 00:16:16;;;;;;;50.54;22.88;;;;;;;;;;356876;148;864804;-54
2021/12/27 00:17:18;;;;;;;67.69;24.54;;;;;;;;;;358010;148;858164;-54
2021/12/27 00:18:19;;;;;;;63.04;25.91;;;;;;;;;;358547;148;866593;-54
2021/12/27 00:19:21;;;;;;;61.50;23.79;;;;;;;;;;357058;149;865360;-56
2021/12/27 00:20:22;;;;;;;46.25;21.47;;;;;;;;;;359139;149;857421;-54
2021/12/27 00:21:24;;;;;;;50.45;20.36;;;;;;;;;;359242;147;857316;-54
2021/12/27 00:22:26;;;;;;;52.58;20.93;;;;;;;;;;360118;147;866649;-52
2021/12/27 00:23:28;;;;;;;55.65;20.85;;;;;;;;;;360080;147;859365;-53
2021/12/27 00:24:29;;;;;;;52.29;21.11;;;;;;;;;;361268;147;865178;-53
2021/12/27 00:25:31;;;;;;;52.14;19.79;;;;;;;;;;359220;147;857313;-53
2021/12/27 00:26:32;;;;;;;50.15;20.47;;;;;;;;;;360462;147;865047;-57
2021/12/27 00:27:34;;;;;;;47.06;19.05;;;;;;;;;;360251;148;866817;-56
2021/12/27 00:28:35;;;;;;;51.00;18.86;;;;;;;;;;360509;147;867708;-56
2021/12/27 00:29:37;;;;;;;44.88;19.47;;;;;;;;;;359224;147;865237;-55
2021/12/27 00:30:38;;;;;;;42.44;17.65;;;;;;;;;;360025;147;857344;-56
2021/12/27 00:31:40;;;;;;;43.73;18.93;;;;;;;;;;360300;147;861745;-53
2021/12/27 00:32:43;;;;;;;46.14;18.94;;;;;;;;;;360879;146;863836;-54
2021/12/27 00:33:45;;;;;;;40.86;18.09;;;;;;;;;;359634;147;865029;-56
2021/12/27 00:34:46;;;;;;;44.89;19.34;;;;;;;;;;359846;147;857223;-56
2021/12/27 00:35:48;;;;;;;46.48;17.71;;;;;;;;;;361447;147;866250;-54
2021/12/27 00:36:50;;;;;;;43.09;17.94;;;;;;;;;;361439;147;866132;-55
2021/12/27 00:37:52;;;;;;;41.30;17.64;;;;;;;;;;359304;148;859291;-54
2021/12/27 00:38:53;;;;;;;46.89;19.19;;;;;;;;;;359193;147;866631;-55
2021/12/27 00:39:55;;;;;;;46.61;21.00;;;;;;;;;;359841;147;862503;-55
2021/12/27 00:40:56;;;;;;;43.16;18.53;;;;;;;;;;359801;147;857736;-54
2021/12/27 00:41:58;;;;;;;42.89;18.13;;;;;;;;;;359441;147;864886;-55
2021/12/27 00:43:00;;;;;;;48.12;18.45;;;;;;;;;;359161;147;857188;-55
2021/12/27 00:44:01;;;;;;;41.80;17.54;;;;;;;;;;359133;147;860367;-54
2021/12/27 00:45:03;;;;;;;43.33;18.11;;;;;;;;;;359074;147;866015;-53
2021/12/27 00:46:05;;;;;;;45.73;18.06;;;;;;;;;;358441;146;864900;-54
2021/12/27 00:47:07;;;;;;;42.10;18.01;;;;;;;;;;360743;147;859675;-54
2021/12/27 00:48:09;;;;;;;48.29;19.24;;;;;;;;;;358391;147;865472;-54
2021/12/27 00:49:10;;;;;;;35.61;16.30;;;;;;;;;;359087;147;864996;-53
2021/12/27 00:50:14;;;;;;;40.91;17.08;;;;;;;;;;358654;147;857402;-54
2021/12/27 00:51:15;;;;;;;40.04;17.23;;;;;;;;;;359520;147;857305;-53
2021/12/27 00:52:17;;;;;;;39.71;18.36;;;;;;;;;;358666;147;865726;-53
2021/12/27 00:53:18;;;;;;;41.73;16.66;;;;;;;;;;357708;147;859013;-54
2021/12/27 00:54:20;;;;;;;40.36;16.41;;;;;;;;;;360964;148;858403;-54
2021/12/27 00:55:21;;;;;;;39.09;15.74;;;;;;;;;;360172;147;858652;-53
2021/12/27 00:56:23;;;;;;;37.91;15.73;;;;;;;;;;358880;147;865761;-54
2021/12/27 00:57:25;;;;;;;38.25;15.38;;;;;;;;;;359343;148;860467;-53
2021/12/27 00:58:26;;;;;;;38.42;16.32;;;;;;;;;;358324;147;866230;-54
2021/12/27 00:59:28;;;;;;;35.63;16.17;;;;;;;;;;359993;147;857371;-54
2021/12/27 01:00:29;;;;;;;40.16;16.56;;;;;;;;;;356576;147;865266;-54
2021/12/27 01:01:31;;;;;;;38.58;15.82;;;;;;;;;;361919;147;864998;-54
2021/12/27 01:02:34;;;;;;;37.09;15.42;;;;;;;;;;360992;147;858940;-54
2021/12/27 01:03:36;;;;;;;37.91;15.98;;;;;;;;;;356604;147;857899;-54
2021/12/27 01:04:38;;;;;;;32.58;15.20;;;;;;;;;;359516;147;865785;-54
2021/12/27 01:05:39;;;;;;;34.22;14.46;;;;;;;;;;361247;147;857992;-53
2021/12/27 01:06:41;;;;;;;30.91;11.91;;;;;;;;;;360002;146;864178;-54
2021/12/27 01:07:42;;;;;;;32.19;14.13;;;;;;;;;;361622;147;865162;-53
2021/12/27 01:08:44;;;;;;;34.85;14.58;;;;;;;;;;360751;147;857470;-53
2021/12/27 01:10:03;;;;;;;32.09;14.69;;;;;;;;;;359768;147;865063;-54
2021/12/27 01:14:28;;;;;;;33.14;13.75;;;;;;;;;;357727;147;857179;-54
2021/12/27 01:15:46;;;;;;;34.09;14.47;;;;;;;;;;359133;147;857689;-54
2021/12/27 01:16:26;;;;;;;34.51;14.64;;;;;;;;;;358815;148;857383;-53
2021/12/27 01:17:28;;;;;;;34.47;16.20;;;;;;;;;;359745;147;859695;-52
2021/12/27 01:18:30;;;;;;;33.61;14.31;;;;;;;;;;360678;147;867468;-56
2021/12/27 01:19:31;;;;;;;33.44;14.94;;;;;;;;;;359516;148;866129;-54
2021/12/27 01:20:35;;;;;;;36.81;14.64;;;;;;;;;;361358;147;865791;-55
2021/12/27 01:21:36;;;;;;;34.76;13.94;;;;;;;;;;358654;147;862526;-54
2021/12/27 01:22:38;;;;;;;36.07;14.51;;;;;;;;;;357752;147;866541;-55
2021/12/27 01:23:40;;;;;;;31.55;14.89;;;;;;;;;;360711;147;865189;-55
2021/12/27 01:24:41;;;;;;;35.12;14.29;;;;;;;;;;359304;147;857908;-55
2021/12/27 01:25:43;;;;;;;35.88;14.78;;;;;;;;;;359512;146;865592;-55
2021/12/27 01:26:44;;;;;;;32.09;15.24;;;;;;;;;;360344;147;857434;-55
2021/12/27 01:27:46;;;;;;;31.79;14.80;;;;;;;;;;359946;147;865036;-54
2021/12/27 01:28:47;;;;;;;33.36;15.24;;;;;;;;;;357148;147;863362;-54
2021/12/27 01:29:49;;;;;;;35.27;15.15;;;;;;;;;;357541;147;857768;-54
2021/12/27 01:30:51;;;;;;;32.80;13.21;;;;;;;;;;360238;147;867218;-54
2021/12/27 01:31:52;;;;;;;39.31;14.47;;;;;;;;;;360291;147;865682;-54
2021/12/27 01:32:58;;;;;;;42.72;17.55;;;;;;;;;;356353;147;866935;-54
2021/12/27 01:33:57;;;;;;;69.54;25.24;;;;;;;;;;359503;146;866434;-54
2021/12/27 01:34:59;;;;;;;56.16;21.76;;;;;;;;;;361793;147;857451;-54
2021/12/27 01:36:00;;;;;;;57.66;21.37;;;;;;;;;;358726;147;865996;-55
2021/12/27 01:37:02;;;;;;;55.71;21.99;;;;;;;;;;357548;149;865506;-53
2021/12/27 01:38:04;;;;;;;48.73;19.44;;;;;;;;;;349423;151;865094;-54
2021/12/27 01:39:05;;;;;;;45.17;19.84;;;;;;;;;;351449;149;857892;-54
2021/12/27 01:40:07;;;;;;;50.73;20.23;;;;;;;;;;359177;149;866194;-56
2021/12/27 01:41:10;;;;;;;55.23;22.33;;;;;;;;;;360005;148;860917;-54
2021/12/27 01:42:11;;;;;;;52.00;22.85;;;;;;;;;;360853;147;857312;-54
2021/12/27 01:43:14;;;;;;;49.25;22.46;;;;;;;;;;360075;147;859044;-54
2021/12/27 01:44:15;;;;;;;54.45;23.57;;;;;;;;;;356651;147;864927;-54
2021/12/27 01:45:17;;;;;;;56.83;24.41;;;;;;;;;;358805;148;857445;-53
2021/12/27 01:46:20;;;;;;;49.50;22.47;;;;;;;;;;359608;147;857213;-54
2021/12/27 01:47:22;;;;;;;57.88;23.52;;;;;;;;;;361240;147;857291;-54
2021/12/27 01:48:24;;;;;;;48.26;21.12;;;;;;;;;;360811;147;857725;-54
2021/12/27 01:49:26;;;;;;;43.59;19.74;;;;;;;;;;358674;147;866832;-53
2021/12/27 01:50:28;;;;;;;49.99;20.90;;;;;;;;;;359545;146;857468;-53
2021/12/27 01:51:29;;;;;;;45.91;18.50;;;;;;;;;;360245;147;865146;-53
2021/12/27 01:52:31;;;;;;;37.03;17.07;;;;;;;;;;357922;147;857291;-53
2021/12/27 01:53:33;;;;;;;34.88;13.63;;;;;;;;;;359836;147;857566;-56
2021/12/27 01:54:35;;;;;;;35.63;15.69;;;;;;;;;;360871;146;866721;-55
2021/12/27 01:55:36;;;;;;;29.94;13.91;;;;;;;;;;356911;147;858393;-55
2021/12/27 01:56:38;;;;;;;33.03;15.14;;;;;;;;;;359860;147;856786;-55
2021/12/27 01:57:39;;;;;;;36.71;14.23;;;;;;;;;;360124;147;865074;-53
2021/12/27 01:58:41;;;;;;;39.84;14.29;;;;;;;;;;358670;147;864148;-54
2021/12/27 01:59:43;;;;;;;31.68;13.49;;;;;;;;;;359416;147;862548;-55
2021/12/27 02:00:45;;;;;;;32.40;14.81;;;;;;;;;;361028;147;857388;-55
2021/12/27 02:01:47;;;;;;;29.21;14.67;;;;;;;;;;358161;147;864960;-54
2021/12/27 02:02:48;;;;;;;37.08;15.21;;;;;;;;;;357921;148;857341;-54
2021/12/27 02:03:50;;;;;;;32.02;14.99;;;;;;;;;;359672;147;865062;-55
2021/12/27 02:04:52;;;;;;;30.57;13.15;;;;;;;;;;358231;147;866768;-55
2021/12/27 02:05:53;;;;;;;33.99;14.67;;;;;;;;;;360002;149;857356;-54
2021/12/27 02:06:55;;;;;;;33.22;13.06;;;;;;;;;;358452;148;857274;-54
2021/12/27 02:07:56;;;;;;;31.72;13.47;;;;;;;;;;359299;147;866503;-55
2021/12/27 02:08:58;;;;;;;33.61;13.60;;;;;;;;;;359972;147;857233;-54
2021/12/27 02:10:02;;;;;;;29.59;13.77;;;;;;;;;;358252;147;858594;-55
2021/12/27 02:11:04;;;;;;;29.11;14.03;;;;;;;;;;351626;150;862653;-55
2021/12/27 02:12:06;;;;;;;27.51;13.07;;;;;;;;;;352769;147;865752;-54
2021/12/27 02:13:08;;;;;;;32.38;13.93;;;;;;;;;;359936;146;857302;-55
2021/12/27 02:14:10;;;;;;;31.34;13.66;;;;;;;;;;359497;148;859074;-55
2021/12/27 02:15:12;;;;;;;28.09;13.28;;;;;;;;;;359613;147;865194;-54
2021/12/27 02:16:15;;;;;;;27.75;13.57;;;;;;;;;;357181;147;857381;-54
2021/12/27 02:17:17;;;;;;;31.57;14.63;;;;;;;;;;356471;147;865045;-54
2021/12/27 02:18:19;;;;;;;34.75;14.06;;;;;;;;;;357820;147;857342;-54
2021/12/27 02:19:21;;;;;;;23.01;12.46;;;;;;;;;;359102;147;857273;-54
2021/12/27 02:20:25;;;;;;;32.92;13.21;;;;;;;;;;357346;147;864913;-54
2021/12/27 02:21:27;;;;;;;29.81;13.26;;;;;;;;;;360753;147;857658;-54
2021/12/27 02:22:34;;;;;;;29.79;13.13;;;;;;;;;;359827;147;865069;-54
2021/12/27 02:23:32;;;;;;;30.56;13.81;;;;;;;;;;358428;148;865849;-54
2021/12/27 02:24:34;;;;;;;26.61;13.19;;;;;;;;;;356323;147;857512;-54
2021/12/27 02:25:36;;;;;;;35.78;14.74;;;;;;;;;;359316;148;857416;-54
2021/12/27 02:26:37;;;;;;;32.64;13.70;;;;;;;;;;359805;146;864374;-54
2021/12/27 02:27:39;;;;;;;32.89;13.19;;;;;;;;;;358074;147;866940;-54
2021/12/27 02:28:40;;;;;;;32.94;13.15;;;;;;;;;;357871;147;857209;-54
2021/12/27 02:29:42;;;;;;;31.18;12.71;;;;;;;;;;359238;147;865539;-54
2021/12/27 02:30:44;;;;;;;30.58;13.81;;;;;;;;;;358463;147;864109;-54
2021/12/27 02:31:47;;;;;;;26.14;12.88;;;;;;;;;;358469;147;865715;-54
2021/12/27 02:32:50;;;;;;;26.31;12.98;;;;;;;;;;358993;147;859792;-55
2021/12/27 02:33:51;;;;;;;28.90;13.19;;;;;;;;;;358484;147;857303;-53
2021/12/27 02:34:53;;;;;;;31.19;13.51;;;;;;;;;;358900;149;865662;-54
2021/12/27 02:35:55;;;;;;;26.25;13.10;;;;;;;;;;358666;147;860299;-54
2021/12/27 02:36:57;;;;;;;33.36;14.31;;;;;;;;;;358657;147;857181;-54
2021/12/27 02:37:59;;;;;;;32.60;13.74;;;;;;;;;;358862;147;858354;-54
2021/12/27 02:39:01;;;;;;;30.18;12.59;;;;;;;;;;359662;147;859094;-55
2021/12/27 02:40:03;;;;;;;28.69;13.79;;;;;;;;;;359590;147;857324;-54
2021/12/27 02:41:05;;;;;;;34.22;14.85;;;;;;;;;;360230;147;866882;-54
2021/12/27 02:42:07;;;;;;;31.03;14.30;;;;;;;;;;357717;147;858767;-54
2021/12/27 02:43:10;;;;;;;32.54;13.76;;;;;;;;;;357881;148;858841;-54
2021/12/27 02:44:12;;;;;;;20.44;10.23;;;;;;;;;;359263;147;865229;-54
2021/12/27 02:45:13;;;;;;;23.09;11.24;;;;;;;;;;359578;147;859511;-55
2021/12/27 02:46:15;;;;;;;30.52;12.63;;;;;;;;;;357963;149;865790;-54
2021/12/27 02:47:17;;;;;;;25.07;11.99;;;;;;;;;;360282;147;857794;-54
2021/12/27 02:48:19;;;;;;;23.46;11.81;;;;;;;;;;358745;147;864727;-54
2021/12/27 02:49:21;;;;;;;27.26;11.74;;;;;;;;;;360008;147;857283;-54
2021/12/27 02:50:23;;;;;;;27.33;11.83;;;;;;;;;;357952;147;864850;-54
2021/12/27 02:51:25;;;;;;;24.79;11.49;;;;;;;;;;358976;147;857346;-54
2021/12/27 02:52:26;;;;;;;24.51;10.78;;;;;;;;;;357684;147;857541;-54
2021/12/27 02:53:30;;;;;;;23.51;11.84;;;;;;;;;;359221;147;865018;-54
2021/12/27 02:54:32;;;;;;;23.76;11.49;;;;;;;;;;359139;147;857360;-54
2021/12/27 02:55:34;;;;;;;24.04;11.44;;;;;;;;;;358636;147;857421;-54
2021/12/27 02:56:35;;;;;;;24.90;11.31;;;;;;;;;;358354;148;865871;-54
2021/12/27 02:57:37;;;;;;;26.61;11.78;;;;;;;;;;359411;147;859157;-54
2021/12/27 02:58:38;;;;;;;24.51;11.59;;;;;;;;;;347330;153;863852;-54
2021/12/27 02:59:40;;;;;;;24.79;11.98;;;;;;;;;;358354;148;861656;-54
2021/12/27 03:00:43;;;;;;;24.96;11.44;;;;;;;;;;355735;147;865946;-54
2021/12/27 03:01:45;;;;;;;28.59;11.33;;;;;;;;;;359291;147;864254;-54
2021/12/27 03:02:47;;;;;;;25.64;11.82;;;;;;;;;;361558;147;856102;-54
2021/12/27 03:03:48;;;;;;;22.59;11.39;;;;;;;;;;358847;147;867076;-55
2021/12/27 03:04:49;;;;;;;26.75;11.82;;;;;;;;;;359568;147;858284;-55
2021/12/27 03:05:51;;;;;;;26.73;11.40;;;;;;;;;;359571;147;857439;-55
2021/12/27 03:06:53;;;;;;;29.96;12.84;;;;;;;;;;358040;147;866173;-54
2021/12/27 03:07:55;;;;;;;27.60;12.66;;;;;;;;;;357599;147;856654;-54
2021/12/27 03:08:58;;;;;;;28.77;12.73;;;;;;;;;;359028;147;864940;-55
2021/12/27 03:09:59;;;;;;;26.09;12.32;;;;;;;;;;357165;147;857733;-55
2021/12/27 03:11:01;;;;;;;30.58;13.06;;;;;;;;;;359391;146;858792;-55
2021/12/27 03:12:03;;;;;;;23.72;11.26;;;;;;;;;;357875;146;865550;-54
2021/12/27 03:13:05;;;;;;;27.44;12.31;;;;;;;;;;358948;147;865376;-54
2021/12/27 03:14:06;;;;;;;20.68;10.21;;;;;;;;;;359099;147;857896;-52
2021/12/27 03:15:08;;;;;;;16.84;9.69;;;;;;;;;;359519;147;864964;-54
2021/12/27 03:16:14;;;;;;;19.00;9.89;;;;;;;;;;359168;147;864995;-54
2021/12/27 03:17:15;;;;;;;21.62;9.62;;;;;;;;;;357929;147;857931;-54
2021/12/27 03:18:17;;;;;;;24.43;10.45;;;;;;;;;;357984;147;857857;-54
2021/12/27 03:19:19;;;;;;;20.46;9.91;;;;;;;;;;359301;147;865633;-54
2021/12/27 03:20:21;;;;;;;18.04;8.88;;;;;;;;;;359189;147;865841;-54
2021/12/27 03:21:23;;;;;;;19.49;9.93;;;;;;;;;;360068;147;865446;-54
2021/12/27 03:22:25;;;;;;;22.34;10.13;;;;;;;;;;357267;147;857462;-53
2021/12/27 03:23:26;;;;;;;20.51;10.79;;;;;;;;;;358840;148;864985;-54
2021/12/27 03:24:28;;;;;;;21.81;9.96;;;;;;;;;;356976;148;857358;-53
2021/12/27 03:25:29;;;;;;;26.18;11.46;;;;;;;;;;354252;149;866330;-53
2021/12/27 03:26:31;;;;;;;23.31;10.69;;;;;;;;;;357493;149;865039;-54
2021/12/27 03:27:32;;;;;;;24.13;11.79;;;;;;;;;;356940;149;866287;-54
2021/12/27 03:28:34;;;;;;;23.59;11.35;;;;;;;;;;358250;148;865882;-57
2021/12/27 03:29:35;;;;;;;25.84;10.99;;;;;;;;;;358750;149;864904;-53
2021/12/27 03:30:37;;;;;;;22.79;10.03;;;;;;;;;;358993;148;864955;-53
2021/12/27 03:31:39;;;;;;;19.92;9.60;;;;;;;;;;357239;148;864901;-54
2021/12/27 03:32:40;;;;;;;21.89;10.26;;;;;;;;;;355842;148;856405;-52
2021/12/27 03:33:42;;;;;;;21.43;9.83;;;;;;;;;;358401;149;864825;-54
2021/12/27 03:34:53;;;;;;;20.92;9.42;;;;;;;;;;356773;148;864012;-55
2021/12/27 03:36:02;;;;;;;19.31;9.76;;;;;;;;;;356950;149;856165;-52
2021/12/27 03:37:03;;;;;;;19.46;9.92;;;;;;;;;;354574;149;858370;-56
2021/12/27 03:38:07;;;;;;;20.22;9.69;;;;;;;;;;356194;149;856648;-55
2021/12/27 03:39:09;;;;;;;18.82;9.23;;;;;;;;;;356337;148;857459;-54
2021/12/27 03:40:11;;;;;;;17.77;9.06;;;;;;;;;;356234;148;859124;-54
2021/12/27 03:41:15;;;;;;;22.05;10.18;;;;;;;;;;360723;148;857823;-54
2021/12/27 03:42:36;;;;;;;19.00;9.24;;;;;;;;;;358320;148;860116;-53
2021/12/27 03:43:38;;;;;;;20.70;9.17;;;;;;;;;;351411;152;857553;-54
2021/12/27 03:44:40;;;;;;;18.31;9.11;;;;;;;;;;352516;152;856945;-54
2021/12/27 03:45:41;;;;;;;21.71;9.66;;;;;;;;;;350450;150;856612;-54
2021/12/27 03:46:43;;;;;;;18.69;8.81;;;;;;;;;;349487;152;859064;-53
2021/12/27 03:47:44;;;;;;;18.71;9.51;;;;;;;;;;349883;152;866908;-54
2021/12/27 03:48:46;;;;;;;16.93;9.33;;;;;;;;;;350770;152;864318;-54
2021/12/27 03:49:48;;;;;;;23.81;10.67;;;;;;;;;;350851;150;856277;-54
2021/12/27 03:50:49;;;;;;;17.52;9.67;;;;;;;;;;351115;152;866619;-54
2021/12/27 03:51:51;;;;;;;16.19;9.23;;;;;;;;;;351414;152;866847;-53
2021/12/27 03:52:53;;;;;;;18.19;9.36;;;;;;;;;;351115;150;865752;-53
2021/12/27 03:53:55;;;;;;;21.45;9.11;;;;;;;;;;351355;151;865158;-53
2021/12/27 03:54:56;;;;;;;19.36;9.28;;;;;;;;;;349112;152;857772;-54
2021/12/27 03:55:58;;;;;;;19.17;10.21;;;;;;;;;;350850;151;864948;-54
2021/12/27 03:56:59;;;;;;;17.49;10.16;;;;;;;;;;350713;150;857560;-54
2021/12/27 03:58:09;;;;;;;18.97;9.60;;;;;;;;;;351541;151;864651;-54
2021/12/27 03:59:23;;;;;;;18.61;9.14;;;;;;;;;;350706;152;865143;-56
2021/12/27 04:01:27;;;;;;;15.88;9.68;;;;;;;;;;349860;152;857323;-54
2021/12/27 04:02:29;;;;;;;21.57;10.31;;;;;;;;;;349487;152;857370;-54
2021/12/27 04:03:31;;;;;;;23.35;10.20;;;;;;;;;;349377;151;864935;-55
2021/12/27 04:04:33;;;;;;;21.59;9.76;;;;;;;;;;350522;151;865763;-55
2021/12/27 04:05:35;;;;;;;21.28;9.57;;;;;;;;;;352240;152;865987;-54
2021/12/27 04:06:36;;;;;;;16.47;8.77;;;;;;;;;;350295;152;866556;-55
2021/12/27 04:07:38;;;;;;;21.27;9.72;;;;;;;;;;351126;151;866125;-54
2021/12/27 04:08:40;;;;;;;16.46;9.49;;;;;;;;;;350254;151;860693;-55
2021/12/27 04:09:42;;;;;;;18.84;10.18;;;;;;;;;;352313;152;856441;-54
2021/12/27 04:10:44;;;;;;;21.10;9.42;;;;;;;;;;350407;151;860213;-54
2021/12/27 04:11:45;;;;;;;18.19;9.41;;;;;;;;;;349310;151;863385;-54
2021/12/27 04:12:47;;;;;;;18.02;9.11;;;;;;;;;;349468;152;856174;-54
2021/12/27 04:13:48;;;;;;;17.74;9.29;;;;;;;;;;351931;152;864250;-54
2021/12/27 04:14:50;;;;;;;19.65;9.51;;;;;;;;;;351889;151;858972;-54
2021/12/27 04:15:51;;;;;;;19.77;9.63;;;;;;;;;;350330;152;863943;-54
2021/12/27 04:16:53;;;;;;;20.81;10.07;;;;;;;;;;352397;149;863024;-54
2021/12/27 04:17:54;;;;;;;20.51;9.19;;;;;;;;;;350878;151;862020;-54
2021/12/27 04:18:56;;;;;;;21.21;10.01;;;;;;;;;;351852;150;865359;-54
2021/12/27 04:19:58;;;;;;;20.44;10.08;;;;;;;;;;350697;152;857729;-54
2021/12/27 04:20:59;;;;;;;21.71;10.13;;;;;;;;;;350851;151;863708;-54
2021/12/27 04:22:01;;;;;;;20.87;10.32;;;;;;;;;;349879;150;858367;-55
2021/12/27 04:23:03;;;;;;;19.33;9.36;;;;;;;;;;349130;152;865721;-54
2021/12/27 04:24:04;;;;;;;20.24;9.73;;;;;;;;;;347089;152;857548;-54
2021/12/27 04:25:07;;;;;;;22.91;10.71;;;;;;;;;;350782;151;866067;-54
2021/12/27 04:26:09;;;;;;;19.02;9.94;;;;;;;;;;350585;151;864968;-54
2021/12/27 04:27:10;;;;;;;20.24;9.84;;;;;;;;;;349928;152;859505;-55
2021/12/27 04:28:12;;;;;;;25.02;10.04;;;;;;;;;;347641;151;865575;-54
2021/12/27 04:29:13;;;;;;;19.91;10.02;;;;;;;;;;352247;151;863717;-54
2021/12/27 04:30:17;;;;;;;23.98;10.82;;;;;;;;;;350318;151;857247;-54
2021/12/27 04:31:18;;;;;;;28.43;11.46;;;;;;;;;;352502;151;857310;-54
2021/12/27 04:32:20;;;;;;;20.30;10.30;;;;;;;;;;351480;149;857379;-54
2021/12/27 04:33:21;;;;;;;17.61;9.19;;;;;;;;;;352115;151;865122;-54
2021/12/27 04:34:23;;;;;;;24.14;10.33;;;;;;;;;;349185;152;857434;-54
2021/12/27 04:35:24;;;;;;;19.92;9.52;;;;;;;;;;350659;151;860235;-54
2021/12/27 04:36:26;;;;;;;20.19;10.39;;;;;;;;;;351924;151;862646;-53
2021/12/27 04:37:32;;;;;;;19.09;10.59;;;;;;;;;;351529;152;866602;-53
2021/12/27 04:38:31;;;;;;;20.79;10.51;;;;;;;;;;347600;152;865962;-53
2021/12/27 04:39:33;;;;;;;19.21;9.56;;;;;;;;;;351255;152;857347;-54
2021/12/27 04:40:36;;;;;;;19.19;10.31;;;;;;;;;;350867;151;864652;-52
2021/12/27 04:41:38;;;;;;;21.65;11.06;;;;;;;;;;349471;151;864760;-53
2021/12/27 04:42:40;;;;;;;19.39;9.89;;;;;;;;;;351566;152;864568;-54
2021/12/27 04:43:42;;;;;;;18.25;10.19;;;;;;;;;;352477;149;865413;-54
2021/12/27 04:44:43;;;;;;;23.09;10.82;;;;;;;;;;352020;150;859242;-52
2021/12/27 04:45:45;;;;;;;21.82;10.70;;;;;;;;;;355474;151;858709;-52
2021/12/27 04:46:47;;;;;;;21.64;10.72;;;;;;;;;;353987;149;864869;-53
2021/12/27 04:47:49;;;;;;;22.47;10.59;;;;;;;;;;353940;150;859083;-54
2021/12/27 04:48:52;;;;;;;23.05;12.29;;;;;;;;;;352339;151;866435;-54
2021/12/27 04:49:53;;;;;;;29.67;16.69;;;;;;;;;;351636;151;863248;-53
2021/12/27 04:50:55;;;;;;;26.66;13.25;;;;;;;;;;354523;150;857335;-53
2021/12/27 04:51:57;;;;;;;23.39;13.10;;;;;;;;;;354185;149;865529;-53
2021/12/27 04:52:58;;;;;;;24.19;12.00;;;;;;;;;;354161;149;864880;-53
2021/12/27 04:54:00;;;;;;;27.38;13.74;;;;;;;;;;352392;150;863276;-54
2021/12/27 04:55:01;;;;;;;28.44;14.03;;;;;;;;;;355736;150;856207;-54
2021/12/27 04:56:03;;;;;;;28.50;15.15;;;;;;;;;;353588;149;857269;-54
2021/12/27 04:57:05;;;;;;;27.22;13.51;;;;;;;;;;352315;151;859138;-53
2021/12/27 04:58:10;;;;;;;21.41;11.41;;;;;;;;;;352647;150;861177;-54
2021/12/27 04:59:11;;;;;;;28.04;11.99;;;;;;;;;;354190;149;864846;-54
2021/12/27 05:00:14;;;;;;;22.31;11.20;;;;;;;;;;354247;151;865052;-54
2021/12/27 05:01:15;;;;;;;23.55;11.79;;;;;;;;;;354007;149;859226;-54
2021/12/27 05:02:17;;;;;;;22.77;12.23;;;;;;;;;;354535;150;858196;-53
2021/12/27 05:03:38;;;;;;;24.88;11.83;;;;;;;;;;355346;149;865305;-55
2021/12/27 05:04:40;;;;;;;22.08;11.61;;;;;;;;;;346793;153;863439;-57
2021/12/27 05:05:44;;;;;;;26.57;12.32;;;;;;;;;;347922;151;856991;-53
2021/12/27 05:06:45;;;;;;;25.79;13.35;;;;;;;;;;347745;154;863984;-54
2021/12/27 05:07:47;;;;;;;32.68;14.42;;;;;;;;;;347714;154;857391;-57
2021/12/27 05:08:50;;;;;;;26.27;13.76;;;;;;;;;;346875;153;863997;-56
2021/12/27 05:09:51;;;;;;;25.75;13.25;;;;;;;;;;346465;152;856272;-52
2021/12/27 05:10:53;;;;;;;27.08;13.42;;;;;;;;;;347786;153;857365;-56
2021/12/27 05:11:54;;;;;;;23.99;12.62;;;;;;;;;;339790;155;866540;-56
2021/12/27 05:12:56;;;;;;;24.81;13.09;;;;;;;;;;347071;152;866549;-56
2021/12/27 05:13:57;;;;;;;22.35;12.73;;;;;;;;;;341044;155;859093;-57
2021/12/27 05:14:59;;;;;;;20.06;11.79;;;;;;;;;;347417;152;861803;-56
2021/12/27 05:16:00;;;;;;;17.64;9.37;;;;;;;;;;347102;152;866307;-58
2021/12/27 05:17:02;;;;;;;22.60;11.43;;;;;;;;;;346666;152;866869;-54
2021/12/27 05:18:04;;;;;;;21.97;11.14;;;;;;;;;;347273;153;860385;-53
2021/12/27 05:19:05;;;;;;;16.10;9.57;;;;;;;;;;347238;153;864868;-56
2021/12/27 05:20:08;;;;;;;21.70;10.51;;;;;;;;;;347521;152;857453;-56
2021/12/27 05:21:10;;;;;;;22.36;11.37;;;;;;;;;;345491;153;864907;-54
2021/12/27 05:22:12;;;;;;;20.37;10.42;;;;;;;;;;348485;151;857495;-54
2021/12/27 05:23:13;;;;;;;22.21;11.51;;;;;;;;;;346123;154;864876;-54
2021/12/27 05:24:15;;;;;;;20.80;11.13;;;;;;;;;;339974;156;864875;-53
2021/12/27 05:25:17;;;;;;;21.06;10.65;;;;;;;;;;345525;153;866590;-58
2021/12/27 05:26:18;;;;;;;21.39;11.84;;;;;;;;;;339367;156;857334;-53
2021/12/27 05:27:20;;;;;;;24.59;12.36;;;;;;;;;;337813;156;857407;-54
2021/12/27 05:28:21;;;;;;;21.17;10.79;;;;;;;;;;339251;156;864879;-53
2021/12/27 05:29:23;;;;;;;22.09;12.86;;;;;;;;;;341706;152;860343;-54
2021/12/27 05:30:25;;;;;;;20.19;11.48;;;;;;;;;;339227;156;857180;-54
2021/12/27 05:31:26;;;;;;;21.16;11.64;;;;;;;;;;344343;152;857325;-53
2021/12/27 05:32:28;;;;;;;20.52;11.44;;;;;;;;;;344398;155;864981;-57
2021/12/27 05:33:29;;;;;;;21.58;11.57;;;;;;;;;;344608;155;866772;-59
2021/12/27 05:34:31;;;;;;;19.06;9.95;;;;;;;;;;345955;152;857402;-59
2021/12/27 05:35:33;;;;;;;20.65;11.77;;;;;;;;;;345512;153;858760;-62
2021/12/27 05:36:34;;;;;;;21.29;12.16;;;;;;;;;;344633;153;857385;-60
2021/12/27 05:37:37;;;;;;;20.10;11.60;;;;;;;;;;344275;152;865080;-60
2021/12/27 05:38:39;;;;;;;23.82;12.13;;;;;;;;;;338989;156;865107;-56
2021/12/27 05:39:41;;;;;;;17.39;9.67;;;;;;;;;;345047;152;856780;-59
2021/12/27 05:40:42;;;;;;;23.97;12.34;;;;;;;;;;348085;154;856319;-59
2021/12/27 05:41:44;;;;;;;20.05;10.85;;;;;;;;;;347373;152;865662;-54
2021/12/27 05:42:46;;;;;;;26.56;13.39;;;;;;;;;;344350;152;857964;-56
2021/12/27 05:43:47;;;;;;;21.00;12.46;;;;;;;;;;345068;155;864913;-59
2021/12/27 05:44:49;;;;;;;23.59;13.35;;;;;;;;;;343186;155;864713;-58
2021/12/27 05:45:50;;;;;;;24.13;11.83;;;;;;;;;;346101;153;857344;-57
2021/12/27 05:46:54;;;;;;;23.57;12.46;;;;;;;;;;343737;155;867007;-55
2021/12/27 05:47:55;;;;;;;24.86;12.53;;;;;;;;;;344723;153;857343;-52
2021/12/27 05:48:57;;;;;;;26.13;12.34;;;;;;;;;;338382;156;859163;-53
2021/12/27 05:49:59;;;;;;;23.43;10.93;;;;;;;;;;344853;153;864889;-57
2021/12/27 05:51:00;;;;;;;26.92;13.37;;;;;;;;;;344666;155;859063;-58
2021/12/27 05:52:02;;;;;;;23.48;12.91;;;;;;;;;;344230;153;865026;-56
2021/12/27 05:53:04;;;;;;;21.28;11.71;;;;;;;;;;345000;152;865400;-56
2021/12/27 05:54:06;;;;;;;22.79;13.66;;;;;;;;;;345707;154;860134;-56
2021/12/27 05:55:08;;;;;;;27.50;14.16;;;;;;;;;;345007;152;865624;-54
2021/12/27 05:56:10;;;;;;;27.26;14.53;;;;;;;;;;344887;153;865000;-55
2021/12/27 05:57:11;;;;;;;27.14;13.57;;;;;;;;;;343139;152;858754;-54
2021/12/27 05:58:13;;;;;;;18.31;11.22;;;;;;;;;;345427;153;857359;-57
2021/12/27 05:59:16;;;;;;;26.96;14.57;;;;;;;;;;346610;152;863788;-54
2021/12/27 06:00:19;;;;;;;25.36;13.91;;;;;;;;;;343712;153;856338;-53
2021/12/27 06:01:21;;;;;;;27.27;13.84;;;;;;;;;;344810;152;857413;-54